createdAt,value
2023-04-09T00:01:19.697Z,4.64
2023-04-09T00:03:50.491Z,4.65
2023-04-09T00:06:21.162Z,4.63
2023-04-09T00:08:52.020Z,4.59
2023-04-09T00:11:21.194Z,4.55
2023-04-09T00:13:52.017Z,4.51
2023-04-09T00:16:22.652Z,4.49
2023-04-09T00:18:53.731Z,4.50
2023-04-09T00:21:24.591Z,4.50
2023-04-09T00:23:55.207Z,4.51
2023-04-09T00:26:25.833Z,4.53
2023-04-09T00:28:56.441Z,4.56
2023-04-09T00:31:27.117Z,4.60
2023-04-09T00:33:57.790Z,4.64
2023-04-09T00:36:28.416Z,4.65
2023-04-09T00:38:59.186Z,4.71
2023-04-09T00:41:29.750Z,4.77
2023-04-09T00:44:00.773Z,4.81
2023-04-09T00:46:32.783Z,4.88
2023-04-09T00:49:03.765Z,4.93
2023-04-09T00:51:35.135Z,4.98
2023-04-09T00:54:06.133Z,5.04
2023-04-09T00:56:38.531Z,5.08
2023-04-09T00:59:09.255Z,5.12
2023-04-09T01:01:40.271Z,5.16
2023-04-09T01:04:09.549Z,5.21
2023-04-09T01:06:47.496Z,5.21
2023-04-09T01:09:24.976Z,5.22
2023-04-09T01:12:09.618Z,5.21
2023-04-09T01:14:45.683Z,5.22
2023-04-09T01:17:22.378Z,5.24
2023-04-09T01:20:00.880Z,5.26
2023-04-09T01:22:55.023Z,5.26
2023-04-09T01:25:37.607Z,5.25
2023-04-09T01:28:18.611Z,5.24
2023-04-09T01:30:53.774Z,5.25
2023-04-09T01:33:25.748Z,5.27
2023-04-09T01:35:57.410Z,5.30
2023-04-09T01:38:29.144Z,5.29
2023-04-09T01:41:02.872Z,5.29
2023-04-09T01:43:34.447Z,5.33
2023-04-09T01:46:05.819Z,5.35
2023-04-09T01:48:37.258Z,5.35
2023-04-09T01:51:08.622Z,5.34
2023-04-09T01:53:37.652Z,5.36
2023-04-09T01:56:09.333Z,5.36
2023-04-09T01:58:39.956Z,5.39
2023-04-09T02:01:14.404Z,5.43
2023-04-09T02:03:47.052Z,5.46
2023-04-09T02:06:23.917Z,5.50
2023-04-09T02:08:58.489Z,5.53
2023-04-09T02:11:33.373Z,5.55
2023-04-09T02:14:07.033Z,5.57
2023-04-09T02:16:38.493Z,5.55
2023-04-09T02:19:09.264Z,5.52
2023-04-09T02:21:39.956Z,5.49
2023-04-09T02:24:10.572Z,5.48
2023-04-09T02:26:41.244Z,5.44
2023-04-09T02:29:11.876Z,5.39
2023-04-09T02:31:42.520Z,5.34
2023-04-09T02:34:13.132Z,5.30
2023-04-09T02:36:43.923Z,5.24
2023-04-09T02:39:14.557Z,5.17
2023-04-09T02:41:47.290Z,5.03
2023-04-09T02:44:17.937Z,4.96
2023-04-09T02:46:49.032Z,4.96
2023-04-09T02:49:20.127Z,4.94
2023-04-09T02:51:50.858Z,4.96
2023-04-09T02:54:21.454Z,4.96
2023-04-09T02:56:52.133Z,4.93
2023-04-09T02:59:23.095Z,4.92
2023-04-09T03:01:52.278Z,4.93
2023-04-09T03:04:23.103Z,4.93
2023-04-09T03:06:54.149Z,4.96
2023-04-09T03:09:24.778Z,4.99
2023-04-09T03:11:55.387Z,4.93
2023-04-09T03:14:48.978Z,4.86
2023-04-09T03:17:17.497Z,4.79
2023-04-09T03:19:48.162Z,4.78
2023-04-09T03:22:18.957Z,4.82
2023-04-09T03:24:49.568Z,4.86
2023-04-09T03:27:20.280Z,4.88
2023-04-09T03:29:50.901Z,4.93
2023-04-09T03:32:21.634Z,4.96
2023-04-09T03:34:52.276Z,4.99
2023-04-09T03:37:22.978Z,5.03
2023-04-09T03:39:53.643Z,5.06
2023-04-09T03:42:24.316Z,5.09
2023-04-09T03:44:56.607Z,5.14
2023-04-09T03:47:27.302Z,5.18
2023-04-09T03:49:58.131Z,5.20
2023-04-09T03:52:28.811Z,5.20
2023-04-09T03:54:59.446Z,5.18
2023-04-09T03:57:30.112Z,5.14
2023-04-09T04:00:00.716Z,5.11
2023-04-09T04:02:31.969Z,5.08
2023-04-09T04:05:02.701Z,5.05
2023-04-09T04:07:34.021Z,5.04
2023-04-09T04:10:05.747Z,5.06
2023-04-09T04:12:36.437Z,5.10
2023-04-09T04:15:10.006Z,5.15
2023-04-09T04:17:40.689Z,5.16
2023-04-09T04:20:14.154Z,5.17
2023-04-09T04:22:51.066Z,5.19
2023-04-09T04:25:21.763Z,5.19
2023-04-09T04:27:52.480Z,5.16
2023-04-09T04:30:23.889Z,5.15
2023-04-09T04:32:54.569Z,5.16
2023-04-09T04:35:25.312Z,5.20
2023-04-09T04:37:55.956Z,5.25
2023-04-09T04:40:26.808Z,5.35
2023-04-09T04:42:57.527Z,5.40
2023-04-09T04:45:28.237Z,5.42
2023-04-09T04:47:59.140Z,5.46
2023-04-09T04:50:29.768Z,5.50
2023-04-09T04:53:07.096Z,5.52
2023-04-09T04:55:38.461Z,5.54
2023-04-09T04:58:29.051Z,5.54
2023-04-09T05:00:59.712Z,5.52
2023-04-09T05:03:30.469Z,5.50
2023-04-09T05:06:01.686Z,5.48
2023-04-09T05:08:32.355Z,5.51
2023-04-09T05:11:03.026Z,5.50
2023-04-09T05:13:33.720Z,5.52
2023-04-09T05:16:04.514Z,5.56
2023-04-09T05:18:35.207Z,5.62
2023-04-09T05:21:06.152Z,5.65
2023-04-09T05:23:35.314Z,5.67
2023-04-09T05:26:16.010Z,5.67
2023-04-09T05:28:46.666Z,5.73
2023-04-09T05:31:36.245Z,5.78
2023-04-09T05:34:17.594Z,5.83
2023-04-09T05:36:48.679Z,5.88
2023-04-09T05:39:17.700Z,5.87
2023-04-09T05:41:51.398Z,5.89
2023-04-09T05:44:22.038Z,5.94
2023-04-09T05:47:23.372Z,5.99
2023-04-09T05:49:43.979Z,6.05
2023-04-09T05:52:14.663Z,6.13
2023-04-09T05:54:45.300Z,6.22
2023-04-09T05:57:16.163Z,6.32
2023-04-09T05:59:46.812Z,6.45
2023-04-09T06:02:17.751Z,6.58
2023-04-09T06:04:46.984Z,6.69
2023-04-09T06:07:17.615Z,6.78
2023-04-09T06:09:48.216Z,6.89
2023-04-09T06:12:21.355Z,6.96
2023-04-09T06:14:55.148Z,7.03
2023-04-09T06:17:31.833Z,7.14
2023-04-09T06:20:02.629Z,7.22
2023-04-09T06:22:33.282Z,7.28
2023-04-09T06:25:04.386Z,7.33
2023-04-09T06:27:35.088Z,7.39
2023-04-09T06:30:13.427Z,7.45
2023-04-09T06:32:53.856Z,7.51
2023-04-09T06:35:26.260Z,7.55
2023-04-09T06:37:55.340Z,7.60
2023-04-09T06:40:25.939Z,7.60
2023-04-09T06:42:56.595Z,7.57
2023-04-09T06:45:28.264Z,7.59
2023-04-09T06:48:18.965Z,7.64
2023-04-09T06:50:49.615Z,7.70
2023-04-09T06:53:20.826Z,7.78
2023-04-09T06:55:51.705Z,7.83
2023-04-09T06:58:22.340Z,7.86
2023-04-09T07:00:53.204Z,7.90
2023-04-09T07:03:24.166Z,7.89
2023-04-09T07:05:53.874Z,7.86
2023-04-09T07:08:26.720Z,7.85
2023-04-09T07:11:04.321Z,7.81
2023-04-09T07:13:35.354Z,7.71
2023-04-09T07:16:06.711Z,7.72
2023-04-09T07:18:37.539Z,7.74
2023-04-09T07:21:08.306Z,7.71
2023-04-09T07:23:42.409Z,7.69
2023-04-09T07:26:13.076Z,7.70
2023-04-09T07:28:43.915Z,7.73
2023-04-09T07:31:15.337Z,7.97
2023-04-09T07:33:46.507Z,8.28
2023-04-09T07:36:15.753Z,8.57
2023-04-09T07:38:46.497Z,8.85
2023-04-09T07:41:17.268Z,9.27
2023-04-09T07:43:47.939Z,9.66
2023-04-09T07:46:22.029Z,9.83
2023-04-09T07:48:53.178Z,9.83
2023-04-09T07:51:22.369Z,9.74
2023-04-09T07:53:53.127Z,9.61
2023-04-09T07:56:24.060Z,9.62
2023-04-09T07:58:54.758Z,9.70
2023-04-09T08:01:25.674Z,9.81
2023-04-09T08:04:16.539Z,9.96
2023-04-09T08:06:50.802Z,10.04
2023-04-09T08:09:22.278Z,10.14
2023-04-09T08:11:53.058Z,10.45
2023-04-09T08:14:23.863Z,10.70
2023-04-09T08:16:54.571Z,10.91
2023-04-09T08:19:25.370Z,11.16
2023-04-09T08:21:56.074Z,11.61
2023-04-09T08:24:26.745Z,12.00
2023-04-09T08:27:07.368Z,11.99
2023-04-09T08:30:08.998Z,12.17
2023-04-09T08:32:33.431Z,12.46
2023-04-09T08:35:08.084Z,12.55
2023-04-09T08:37:38.783Z,12.77
2023-04-09T08:40:11.681Z,12.95
2023-04-09T08:42:46.026Z,13.08
2023-04-09T08:45:47.778Z,13.23
2023-04-09T08:48:10.835Z,13.28
2023-04-09T08:50:41.762Z,13.36
2023-04-09T08:53:13.559Z,13.38
2023-04-09T08:55:56.842Z,13.33
2023-04-09T08:58:27.630Z,13.50
2023-04-09T09:01:21.572Z,13.64
2023-04-09T09:04:07.186Z,13.83
2023-04-09T09:06:39.987Z,13.88
2023-04-09T09:09:12.576Z,13.81
2023-04-09T09:11:44.515Z,13.85
2023-04-09T09:14:16.477Z,13.73
2023-04-09T09:17:08.547Z,13.56
2023-04-09T09:19:39.666Z,13.37
2023-04-09T09:22:10.683Z,13.08
2023-04-09T09:24:50.371Z,12.83
2023-04-09T09:27:35.027Z,12.62
2023-04-09T09:30:36.598Z,12.47
2023-04-09T09:33:13.364Z,12.45
2023-04-09T09:35:51.643Z,12.49
2023-04-09T09:38:23.644Z,12.52
2023-04-09T09:40:54.328Z,12.64
2023-04-09T09:43:25.132Z,12.79
2023-04-09T09:45:58.377Z,12.76
2023-04-09T09:48:31.312Z,12.74
2023-04-09T09:51:02.934Z,12.81
2023-04-09T09:53:35.847Z,12.96
2023-04-09T09:56:14.291Z,12.80
2023-04-09T09:59:00.125Z,12.65
2023-04-09T10:01:31.078Z,12.64
2023-04-09T10:04:00.955Z,12.58
2023-04-09T10:06:32.704Z,12.46
2023-04-09T10:09:09.088Z,12.32
2023-04-09T10:11:42.569Z,12.29
2023-04-09T10:14:13.775Z,12.43
2023-04-09T10:16:44.908Z,12.41
2023-04-09T10:19:16.074Z,12.24
2023-04-09T10:21:55.315Z,12.23
2023-04-09T10:24:26.661Z,12.27
2023-04-09T10:27:00.599Z,12.47
2023-04-09T10:29:44.031Z,12.54
2023-04-09T10:32:20.721Z,12.62
2023-04-09T10:34:52.233Z,12.79
2023-04-09T10:37:24.953Z,12.92
2023-04-09T10:39:56.038Z,12.98
2023-04-09T10:42:33.132Z,13.13
2023-04-09T10:45:13.589Z,13.29
2023-04-09T10:47:45.076Z,13.18
2023-04-09T10:50:20.160Z,13.12
2023-04-09T10:52:54.439Z,13.14
2023-04-09T10:55:35.068Z,13.18
2023-04-09T10:58:07.552Z,13.31
2023-04-09T11:00:41.314Z,13.46
2023-04-09T11:03:24.074Z,13.57
2023-04-09T11:06:04.781Z,13.61
2023-04-09T11:08:36.026Z,13.73
2023-04-09T11:11:06.932Z,13.80
2023-04-09T11:13:37.634Z,13.88
2023-04-09T11:16:11.746Z,13.89
2023-04-09T11:18:54.504Z,13.79
2023-04-09T11:21:28.418Z,13.67
2023-04-09T11:23:59.472Z,13.60
2023-04-09T11:26:38.076Z,13.53
2023-04-09T11:29:08.722Z,13.57
2023-04-09T11:31:39.373Z,13.55
2023-04-09T11:34:11.552Z,13.54
2023-04-09T11:36:42.367Z,13.49
2023-04-09T11:39:13.046Z,13.45
2023-04-09T11:41:43.665Z,13.36
2023-04-09T11:44:15.480Z,13.34
2023-04-09T11:46:46.851Z,13.26
2023-04-09T11:49:17.910Z,13.21
2023-04-09T11:51:47.060Z,13.19
2023-04-09T11:54:17.717Z,13.26
2023-04-09T11:56:50.858Z,13.30
2023-04-09T11:59:21.598Z,13.27
2023-04-09T12:01:52.604Z,13.27
2023-04-09T12:04:23.414Z,13.34
2023-04-09T12:06:56.348Z,13.39
2023-04-09T12:09:27.488Z,13.42
2023-04-09T12:11:59.171Z,13.50
2023-04-09T12:14:29.803Z,13.70
2023-04-09T12:17:00.517Z,13.87
2023-04-09T12:19:33.432Z,13.90
2023-04-09T12:22:05.615Z,13.77
2023-04-09T12:24:38.520Z,13.64
2023-04-09T12:27:33.476Z,13.57
2023-04-09T12:30:14.272Z,13.52
2023-04-09T12:32:45.033Z,13.52
2023-04-09T12:35:14.844Z,13.57
2023-04-09T12:37:45.664Z,13.68
2023-04-09T12:40:16.545Z,13.81
2023-04-09T12:42:46.052Z,13.94
2023-04-09T12:45:18.524Z,14.05
2023-04-09T12:47:49.417Z,14.12
2023-04-09T12:50:18.489Z,14.21
2023-04-09T12:52:49.662Z,14.30
2023-04-09T12:55:20.325Z,14.45
2023-04-09T12:57:56.195Z,14.60
2023-04-09T13:00:27.008Z,14.60
2023-04-09T13:02:57.890Z,14.52
2023-04-09T13:05:30.818Z,14.53
2023-04-09T13:08:01.408Z,14.55
2023-04-09T13:10:36.977Z,14.59
2023-04-09T13:13:10.050Z,14.72
2023-04-09T13:15:41.549Z,14.86
2023-04-09T13:18:13.079Z,15.01
2023-04-09T13:20:43.719Z,15.19
2023-04-09T13:23:14.368Z,15.23
2023-04-09T13:25:45.091Z,15.15
2023-04-09T13:28:15.724Z,14.96
2023-04-09T13:30:47.629Z,14.89
2023-04-09T13:33:18.275Z,14.76
2023-04-09T13:35:48.968Z,14.50
2023-04-09T13:38:19.686Z,14.37
2023-04-09T13:40:50.465Z,14.34
2023-04-09T13:43:21.160Z,14.38
2023-04-09T13:45:51.933Z,14.46
2023-04-09T13:48:22.788Z,14.46
2023-04-09T13:50:51.877Z,14.50
2023-04-09T13:53:22.599Z,14.49
2023-04-09T13:55:55.657Z,14.57
2023-04-09T13:58:26.357Z,14.49
2023-04-09T14:00:57.028Z,14.52
2023-04-09T14:03:27.824Z,14.48
2023-04-09T14:05:56.899Z,14.45
2023-04-09T14:08:27.593Z,14.45
2023-04-09T14:10:58.255Z,14.36
2023-04-09T14:13:29.228Z,14.33
2023-04-09T14:16:00.620Z,14.33
2023-04-09T14:18:31.385Z,14.10
2023-04-09T14:21:02.126Z,13.84
2023-04-09T14:24:52.260Z,13.68
2023-04-09T14:26:34.294Z,13.56
2023-04-09T14:29:05.331Z,13.40
2023-04-09T14:31:38.283Z,13.23
2023-04-09T14:34:08.974Z,13.17
2023-04-09T14:36:39.570Z,13.18
2023-04-09T14:39:22.909Z,13.23
2023-04-09T14:41:53.631Z,13.37
2023-04-09T14:44:24.342Z,13.51
2023-04-09T14:46:55.281Z,13.53
2023-04-09T14:49:24.457Z,13.55
2023-04-09T14:51:55.195Z,13.63
2023-04-09T14:54:26.025Z,13.59
2023-04-09T14:56:56.757Z,13.44
2023-04-09T14:59:27.493Z,13.29
2023-04-09T15:01:58.156Z,13.13
2023-04-09T15:04:28.945Z,12.99
2023-04-09T15:06:59.570Z,12.79
2023-04-09T15:09:30.337Z,12.71
2023-04-09T15:12:03.673Z,12.74
2023-04-09T15:14:34.366Z,12.75
2023-04-09T15:17:05.021Z,12.71
2023-04-09T15:19:35.922Z,12.63
2023-04-09T15:22:06.520Z,12.50
2023-04-09T15:24:37.274Z,12.30
2023-04-09T15:27:07.899Z,12.11
2023-04-09T15:29:38.663Z,11.97
2023-04-09T15:32:09.310Z,11.85
2023-04-09T15:34:49.986Z,11.79
2023-04-09T15:37:20.677Z,11.69
2023-04-09T15:39:51.289Z,11.60
2023-04-09T15:42:21.922Z,11.54
2023-04-09T15:44:52.609Z,11.47
2023-04-09T15:47:23.247Z,11.33
2023-04-09T15:49:54.100Z,11.25
2023-04-09T15:52:24.736Z,11.18
2023-04-09T15:54:55.954Z,11.13
2023-04-09T15:57:26.781Z,11.09
2023-04-09T15:59:57.466Z,11.08
2023-04-09T16:02:28.181Z,11.11
2023-04-09T16:04:59.286Z,11.14
2023-04-09T16:07:29.907Z,11.15
2023-04-09T16:10:02.000Z,11.13
2023-04-09T16:12:32.610Z,11.14
2023-04-09T16:15:03.391Z,11.14
2023-04-09T16:17:40.300Z,11.18
2023-04-09T16:20:19.175Z,11.23
2023-04-09T16:22:51.637Z,11.25
2023-04-09T16:25:22.390Z,11.23
2023-04-09T16:27:52.980Z,11.20
2023-04-09T16:30:31.686Z,11.18
2023-04-09T16:33:02.584Z,11.16
2023-04-09T16:35:33.438Z,11.14
2023-04-09T16:38:04.256Z,11.14
2023-04-09T16:40:33.604Z,11.16
2023-04-09T16:43:05.062Z,11.12
2023-04-09T16:45:36.183Z,11.05
2023-04-09T16:48:07.248Z,11.01
2023-04-09T16:50:38.293Z,10.95
2023-04-09T16:53:07.738Z,10.88
2023-04-09T16:55:38.575Z,10.82
2023-04-09T16:58:09.590Z,10.79
2023-04-09T17:00:40.415Z,10.77
2023-04-09T17:03:11.461Z,10.76
2023-04-09T17:05:42.118Z,10.76
2023-04-09T17:08:12.821Z,10.77
2023-04-09T17:10:43.900Z,10.76
2023-04-09T17:13:15.090Z,10.75
2023-04-09T17:15:45.688Z,10.75
2023-04-09T17:18:15.190Z,10.78
2023-04-09T17:20:55.245Z,10.74
2023-04-09T17:23:26.238Z,10.73
2023-04-09T17:25:56.997Z,10.72
2023-04-09T17:28:27.823Z,10.69
2023-04-09T17:30:58.833Z,10.66
2023-04-09T17:33:29.501Z,10.58
2023-04-09T17:36:00.194Z,10.52
2023-04-09T17:38:30.936Z,10.48
2023-04-09T17:41:34.762Z,10.41
2023-04-09T17:43:56.036Z,10.32
2023-04-09T17:46:26.765Z,10.24
2023-04-09T17:48:57.548Z,10.15
2023-04-09T17:51:26.841Z,10.06
2023-04-09T17:53:57.820Z,9.96
2023-04-09T17:56:27.210Z,9.91
2023-04-09T17:58:57.895Z,9.88
2023-04-09T18:01:29.879Z,9.85
2023-04-09T18:04:01.457Z,9.82
2023-04-09T18:06:33.317Z,9.78
2023-04-09T18:09:04.251Z,9.77
2023-04-09T18:11:34.862Z,9.74
2023-04-09T18:14:05.550Z,9.70
2023-04-09T18:16:37.223Z,9.66
2023-04-09T18:19:08.399Z,9.62
2023-04-09T18:21:39.095Z,9.60
2023-04-09T18:24:09.830Z,9.58
2023-04-09T18:26:40.514Z,9.55
2023-04-09T18:29:11.160Z,9.48
2023-04-09T18:31:40.705Z,9.39
2023-04-09T18:34:11.695Z,9.32
2023-04-09T18:36:42.608Z,9.31
2023-04-09T18:39:13.297Z,9.31
2023-04-09T18:41:44.558Z,9.28
2023-04-09T18:44:15.665Z,9.27
2023-04-09T18:46:46.445Z,9.24
2023-04-09T18:49:38.056Z,9.21
2023-04-09T18:52:09.045Z,9.18
2023-04-09T18:54:39.742Z,9.19
2023-04-09T18:57:09.105Z,9.12
2023-04-09T18:59:40.484Z,9.07
2023-04-09T19:02:17.477Z,9.05
2023-04-09T19:04:52.000Z,9.01
2023-04-09T19:08:35.541Z,8.95
2023-04-09T19:11:06.540Z,8.91
2023-04-09T19:13:35.450Z,8.86
2023-04-09T19:16:07.806Z,8.85
2023-04-09T19:18:38.944Z,8.83
2023-04-09T19:21:08.477Z,8.79
2023-04-09T19:23:39.680Z,8.76
2023-04-09T19:26:11.204Z,8.72
2023-04-09T19:28:42.190Z,8.66
2023-04-09T19:31:13.055Z,8.63
2023-04-09T19:33:44.076Z,8.60
2023-04-09T19:36:15.318Z,8.58
2023-04-09T19:38:45.910Z,8.54
2023-04-09T19:41:16.898Z,8.54
2023-04-09T19:43:48.596Z,8.52
2023-04-09T19:46:19.301Z,8.46
2023-04-09T19:48:50.078Z,8.43
2023-04-09T19:51:21.241Z,8.39
2023-04-09T19:53:56.128Z,8.31
2023-04-09T19:56:27.872Z,8.26
2023-04-09T19:58:58.481Z,8.23
2023-04-09T20:01:29.251Z,8.22
2023-04-09T20:04:00.249Z,8.21
2023-04-09T20:06:31.128Z,8.18
2023-04-09T20:09:01.800Z,8.14
2023-04-09T20:11:32.468Z,8.07
2023-04-09T20:14:03.096Z,7.99
2023-04-09T20:16:33.808Z,7.93
2023-04-09T20:19:04.476Z,7.85
2023-04-09T20:21:35.265Z,7.77
2023-04-09T20:24:07.999Z,7.75
2023-04-09T20:26:59.314Z,7.75
2023-04-09T20:29:32.628Z,7.76
2023-04-09T20:32:03.354Z,7.74
2023-04-09T20:34:34.066Z,7.70
2023-04-09T20:37:24.702Z,7.68
2023-04-09T20:40:00.551Z,7.64
2023-04-09T20:42:31.279Z,7.58
2023-04-09T20:45:07.643Z,7.56
2023-04-09T20:47:38.416Z,7.57
2023-04-09T20:50:10.534Z,7.58
2023-04-09T20:52:41.688Z,7.58
2023-04-09T20:55:12.560Z,7.58
2023-04-09T20:57:43.201Z,7.59
2023-04-09T21:00:14.946Z,7.60
2023-04-09T21:02:45.882Z,7.61
2023-04-09T21:05:22.929Z,7.63
2023-04-09T21:07:55.470Z,7.62
2023-04-09T21:10:26.134Z,7.63
2023-04-09T21:13:03.422Z,7.63
2023-04-09T21:15:34.017Z,7.63
2023-04-09T21:18:04.804Z,7.64
2023-04-09T21:20:35.452Z,7.63
2023-04-09T21:23:06.641Z,7.61
2023-04-09T21:25:37.338Z,7.58
2023-04-09T21:28:08.400Z,7.56
2023-04-09T21:30:39.082Z,7.51
2023-04-09T21:33:10.218Z,7.48
2023-04-09T21:35:40.877Z,7.45
2023-04-09T21:38:11.591Z,7.44
2023-04-09T21:40:42.248Z,7.43
2023-04-09T21:43:12.858Z,7.40
2023-04-09T21:45:43.484Z,7.35
2023-04-09T21:48:14.388Z,7.32
2023-04-09T21:50:44.998Z,7.29
2023-04-09T21:53:18.096Z,7.28
2023-04-09T21:55:48.775Z,7.25
2023-04-09T21:58:19.383Z,7.19
2023-04-09T22:00:50.073Z,7.17
2023-04-09T22:03:20.934Z,7.15
2023-04-09T22:05:51.909Z,7.11
2023-04-09T22:08:22.540Z,7.10
2023-04-09T22:10:55.909Z,7.09
2023-04-09T22:13:26.644Z,7.08
2023-04-09T22:15:57.330Z,7.06
2023-04-09T22:18:28.076Z,7.01
2023-04-09T22:20:58.742Z,6.98
2023-04-09T22:23:29.453Z,6.93
2023-04-09T22:26:03.368Z,6.91
2023-04-09T22:28:34.032Z,6.91
2023-04-09T22:31:04.951Z,6.90
2023-04-09T22:33:35.692Z,6.91
2023-04-09T22:36:08.629Z,6.90
2023-04-09T22:38:39.304Z,6.88
2023-04-09T22:41:09.996Z,6.87
2023-04-09T22:43:40.673Z,6.85
2023-04-09T22:46:11.305Z,6.80
2023-04-09T22:48:44.969Z,6.79
2023-04-09T22:51:26.145Z,6.77
2023-04-09T22:53:56.854Z,6.74
2023-04-09T22:56:27.705Z,6.74
2023-04-09T22:58:58.425Z,6.71
2023-04-09T23:01:29.185Z,6.68
2023-04-09T23:03:59.871Z,6.64
2023-04-09T23:06:30.577Z,6.60
2023-04-09T23:09:01.474Z,6.58
2023-04-09T23:11:32.131Z,6.55
2023-04-09T23:14:02.831Z,6.53
2023-04-09T23:16:33.517Z,6.51
2023-04-09T23:19:04.292Z,6.48
2023-04-09T23:21:34.936Z,6.46
2023-04-09T23:24:06.034Z,6.41
2023-04-09T23:26:35.051Z,6.38
2023-04-09T23:29:05.676Z,6.35
2023-04-09T23:31:36.370Z,6.31
2023-04-09T23:34:07.133Z,6.28
2023-04-09T23:36:37.787Z,6.24
2023-04-09T23:39:08.411Z,6.17
2023-04-09T23:41:39.014Z,6.11
2023-04-09T23:44:09.623Z,6.08
2023-04-09T23:49:31.460Z,6.10
2023-04-09T23:52:02.053Z,5.98
2023-04-09T23:54:32.723Z,5.85
2023-04-09T23:57:03.393Z,5.75
2023-04-09T23:59:34.083Z,5.72
